LiveATC.Net - Listen to live air traffic control over the Internet!


ICAO: LJMB  IATA: MBX   Airport: Maribor Edvard Rusjan Airport
City: Maribor
Country: Slovenia   Continent: Europe
LJMB METAR Weather: LJMB 051900Z 02006KT 350V050 9999 BKN031 18/14 Q1017
LJMB Flight Activity (FlightAware)
LJMB Webcam:  (Airport Webcams) 

LJMB Info/FSS/FIC
Feed Status: DOWN
Last heard on: 2020-03-04 08:39:39 (154 days 11 hours 20 minutes ago)
Archive Access: LJMB Info/FSS/FIC
FacilityFrequency
Ljubljana Information FSS/FIC (Maribor Area)118.475

LJMB Tower/Approach
Feed Status: DOWN
Last heard on: 2020-03-05 21:16:39 (152 days 22 hours 43 minutes ago)
Archive Access: LJMB Tower/Approach
FacilityFrequency
Maribor Tower/Approach119.200

NOTICE

Unauthorized use prohibited. See LiveATC.net Terms of Service


Airport/ARTCC Code
Frequency Search
(e.g., 124.400, 128.75)
Site-wide search
 


Browse Feeds
Top 50 Feeds
Coverage Map
Bad Weather Areas

LiveATC FAQ
Offer LiveATC feed
Contact LiveATC.net
Press Inquiries

LiveATC on iPhone
LiveATC on Android

Windows Phone
Windows 8/10

LiveATC Mobile
(Mobile browser)

ATC Audio Archives
Interesting Recordings

LiveATC Forums


Home Page
About LiveATC.net
Make a Donation
Terms of Use
Privacy Policy

Canadian Air Freqs

AIRMETs/SIGMETs

FAA Airport Status
Nat'l Airspace Status
Arrival Demand Charts


Server Software By:
Icecast.org
Liquidsoap